sensor_id;sensor_type;location;lat;lon;timestamp;temperature;humidity
84296;SHT31;74464;42.688;23.304;2024-03-02T00:00:24;8.53;75.56
84296;SHT31;74464;42.688;23.304;2024-03-02T00:02:50;8.53;75.31
84296;SHT31;74464;42.688;23.304;2024-03-02T00:05:18;8.51;75.32
84296;SHT31;74464;42.688;23.304;2024-03-02T00:07:46;8.50;74.93
84296;SHT31;74464;42.688;23.304;2024-03-02T00:10:16;8.48;75.23
84296;SHT31;74464;42.688;23.304;2024-03-02T00:12:45;8.48;75.39
84296;SHT31;74464;42.688;23.304;2024-03-02T00:15:41;8.54;75.18
84296;SHT31;74464;42.688;23.304;2024-03-02T00:18:11;8.57;75.15
84296;SHT31;74464;42.688;23.304;2024-03-02T00:20:38;8.57;74.97
84296;SHT31;74464;42.688;23.304;2024-03-02T00:23:05;8.57;74.99
84296;SHT31;74464;42.688;23.304;2024-03-02T00:25:40;8.54;75.11
84296;SHT31;74464;42.688;23.304;2024-03-02T00:30:49;8.60;74.83
84296;SHT31;74464;42.688;23.304;2024-03-02T00:33:15;8.64;74.54
84296;SHT31;74464;42.688;23.304;2024-03-02T00:35:44;8.63;74.48
84296;SHT31;74464;42.688;23.304;2024-03-02T00:38:12;8.68;74.05
84296;SHT31;74464;42.688;23.304;2024-03-02T00:40:44;8.60;74.33
84296;SHT31;74464;42.688;23.304;2024-03-02T00:43:41;8.60;74.79
84296;SHT31;74464;42.688;23.304;2024-03-02T00:46:07;8.64;74.63
84296;SHT31;74464;42.688;23.304;2024-03-02T00:48:33;8.68;74.49
84296;SHT31;74464;42.688;23.304;2024-03-02T00:51:03;8.75;73.88
84296;SHT31;74464;42.688;23.304;2024-03-02T00:53:31;8.78;74.30
84296;SHT31;74464;42.688;23.304;2024-03-02T00:56:01;8.76;73.99
84296;SHT31;74464;42.688;23.304;2024-03-02T00:58:26;8.78;73.99
84296;SHT31;74464;42.688;23.304;2024-03-02T01:00:52;8.84;73.73
84296;SHT31;74464;42.688;23.304;2024-03-02T01:03:18;8.82;73.51
84296;SHT31;74464;42.688;23.304;2024-03-02T01:05:45;8.82;73.43
84296;SHT31;74464;42.688;23.304;2024-03-02T01:08:12;8.89;73.39
84296;SHT31;74464;42.688;23.304;2024-03-02T01:10:37;8.89;73.73
84296;SHT31;74464;42.688;23.304;2024-03-02T01:13:04;8.84;73.34
84296;SHT31;74464;42.688;23.304;2024-03-02T01:15:31;8.85;73.26
84296;SHT31;74464;42.688;23.304;2024-03-02T01:17:57;8.91;73.06
84296;SHT31;74464;42.688;23.304;2024-03-02T01:20:24;8.86;72.95
84296;SHT31;74464;42.688;23.304;2024-03-02T01:22:50;8.88;73.21
84296;SHT31;74464;42.688;23.304;2024-03-02T01:25:16;8.85;73.45
84296;SHT31;74464;42.688;23.304;2024-03-02T01:27:41;8.82;73.44
84296;SHT31;74464;42.688;23.304;2024-03-02T01:30:07;8.88;73.66
84296;SHT31;74464;42.688;23.304;2024-03-02T01:32:33;8.86;73.48
84296;SHT31;74464;42.688;23.304;2024-03-02T01:34:59;8.88;73.62
84296;SHT31;74464;42.688;23.304;2024-03-02T01:37:25;8.88;73.62
84296;SHT31;74464;42.688;23.304;2024-03-02T01:39:50;8.91;73.65
84296;SHT31;74464;42.688;23.304;2024-03-02T01:42:16;8.86;73.86
84296;SHT31;74464;42.688;23.304;2024-03-02T01:44:41;8.85;74.06
84296;SHT31;74464;42.688;23.304;2024-03-02T01:47:08;8.88;74.11
84296;SHT31;74464;42.688;23.304;2024-03-02T01:49:34;8.92;74.25
84296;SHT31;74464;42.688;23.304;2024-03-02T01:51:59;8.91;74.31
84296;SHT31;74464;42.688;23.304;2024-03-02T01:54:25;8.89;74.45
84296;SHT31;74464;42.688;23.304;2024-03-02T01:56:51;8.93;74.92
84296;SHT31;74464;42.688;23.304;2024-03-02T01:59:17;9.01;74.45
84296;SHT31;74464;42.688;23.304;2024-03-02T02:01:42;9.03;74.26
84296;SHT31;74464;42.688;23.304;2024-03-02T02:04:09;9.02;74.33
84296;SHT31;74464;42.688;23.304;2024-03-02T02:06:37;9.01;74.69
84296;SHT31;74464;42.688;23.304;2024-03-02T02:09:04;8.98;75.02
84296;SHT31;74464;42.688;23.304;2024-03-02T02:11:30;9.03;74.78
84296;SHT31;74464;42.688;23.304;2024-03-02T02:13:55;9.02;74.86
84296;SHT31;74464;42.688;23.304;2024-03-02T02:16:21;9.10;74.47
84296;SHT31;74464;42.688;23.304;2024-03-02T02:18:47;9.06;74.63
84296;SHT31;74464;42.688;23.304;2024-03-02T02:21:14;8.96;74.87
84296;SHT31;74464;42.688;23.304;2024-03-02T02:23:40;8.96;75.28
84296;SHT31;74464;42.688;23.304;2024-03-02T02:26:07;9.01;75.36
84296;SHT31;74464;42.688;23.304;2024-03-02T02:28:33;8.96;75.65
84296;SHT31;74464;42.688;23.304;2024-03-02T02:31:00;9.01;75.80
84296;SHT31;74464;42.688;23.304;2024-03-02T02:33:26;8.98;75.91
84296;SHT31;74464;42.688;23.304;2024-03-02T02:35:52;8.91;76.23
84296;SHT31;74464;42.688;23.304;2024-03-02T02:38:17;8.91;75.52
84296;SHT31;74464;42.688;23.304;2024-03-02T02:40:45;8.89;75.33
84296;SHT31;74464;42.688;23.304;2024-03-02T02:43:10;8.93;75.16
84296;SHT31;74464;42.688;23.304;2024-03-02T02:45:36;8.89;75.25
84296;SHT31;74464;42.688;23.304;2024-03-02T02:48:02;8.86;75.55
84296;SHT31;74464;42.688;23.304;2024-03-02T02:50:29;8.89;75.57
84296;SHT31;74464;42.688;23.304;2024-03-02T02:52:55;8.85;75.74
84296;SHT31;74464;42.688;23.304;2024-03-02T02:55:20;8.84;75.93
84296;SHT31;74464;42.688;23.304;2024-03-02T02:57:47;8.95;75.56
84296;SHT31;74464;42.688;23.304;2024-03-02T03:00:14;8.84;75.70
84296;SHT31;74464;42.688;23.304;2024-03-02T03:02:42;8.92;75.46
84296;SHT31;74464;42.688;23.304;2024-03-02T03:05:12;8.95;75.21
84296;SHT31;74464;42.688;23.304;2024-03-02T03:07:40;8.92;75.35
84296;SHT31;74464;42.688;23.304;2024-03-02T03:10:06;8.92;75.54
84296;SHT31;74464;42.688;23.304;2024-03-02T03:12:37;8.93;75.60
84296;SHT31;74464;42.688;23.304;2024-03-02T03:15:03;8.84;75.83
84296;SHT31;74464;42.688;23.304;2024-03-02T03:17:30;8.69;76.44
84296;SHT31;74464;42.688;23.304;2024-03-02T03:19:56;8.69;77.07
84296;SHT31;74464;42.688;23.304;2024-03-02T03:22:22;8.69;77.07
84296;SHT31;74464;42.688;23.304;2024-03-02T03:24:47;8.71;77.38
84296;SHT31;74464;42.688;23.304;2024-03-02T03:27:14;8.69;77.35
84296;SHT31;74464;42.688;23.304;2024-03-02T03:29:40;8.69;77.11
84296;SHT31;74464;42.688;23.304;2024-03-02T03:32:06;8.82;77.00
84296;SHT31;74464;42.688;23.304;2024-03-02T03:34:36;8.63;77.43
84296;SHT31;74464;42.688;23.304;2024-03-02T03:37:03;8.51;77.99
84296;SHT31;74464;42.688;23.304;2024-03-02T03:39:29;8.37;78.56
84296;SHT31;74464;42.688;23.304;2024-03-02T03:41:54;8.38;78.54
84296;SHT31;74464;42.688;23.304;2024-03-02T03:44:22;8.44;78.62
84296;SHT31;74464;42.688;23.304;2024-03-02T03:46:48;8.41;78.73
84296;SHT31;74464;42.688;23.304;2024-03-02T03:49:13;8.33;79.20
84296;SHT31;74464;42.688;23.304;2024-03-02T03:51:39;8.05;80.72
84296;SHT31;74464;42.688;23.304;2024-03-02T03:54:05;8.01;81.42
84296;SHT31;74464;42.688;23.304;2024-03-02T03:56:30;8.20;80.97
84296;SHT31;74464;42.688;23.304;2024-03-02T03:58:56;8.36;80.39
84296;SHT31;74464;42.688;23.304;2024-03-02T04:01:22;8.23;80.64
84296;SHT31;74464;42.688;23.304;2024-03-02T04:03:48;7.92;81.64
84296;SHT31;74464;42.688;23.304;2024-03-02T04:06:15;7.68;82.65
84296;SHT31;74464;42.688;23.304;2024-03-02T04:08:43;7.81;82.53
84296;SHT31;74464;42.688;23.304;2024-03-02T04:11:09;7.71;82.68
84296;SHT31;74464;42.688;23.304;2024-03-02T04:13:36;7.65;83.16
84296;SHT31;74464;42.688;23.304;2024-03-02T04:16:01;7.84;82.81
84296;SHT31;74464;42.688;23.304;2024-03-02T04:18:30;7.96;82.67
84296;SHT31;74464;42.688;23.304;2024-03-02T04:20:56;8.10;82.22
84296;SHT31;74464;42.688;23.304;2024-03-02T04:23:23;8.25;81.65
84296;SHT31;74464;42.688;23.304;2024-03-02T04:25:49;7.85;82.09
84296;SHT31;74464;42.688;23.304;2024-03-02T04:28:15;7.77;82.82
84296;SHT31;74464;42.688;23.304;2024-03-02T04:30:41;7.75;82.99
84296;SHT31;74464;42.688;23.304;2024-03-02T04:33:07;7.65;83.52
84296;SHT31;74464;42.688;23.304;2024-03-02T04:35:36;7.55;83.88
84296;SHT31;74464;42.688;23.304;2024-03-02T04:38:03;7.63;83.39
84296;SHT31;74464;42.688;23.304;2024-03-02T04:40:30;7.58;84.01
84296;SHT31;74464;42.688;23.304;2024-03-02T04:42:55;7.75;83.55
84296;SHT31;74464;42.688;23.304;2024-03-02T04:45:23;7.93;83.26
84296;SHT31;74464;42.688;23.304;2024-03-02T04:47:49;8.12;83.00
84296;SHT31;74464;42.688;23.304;2024-03-02T04:50:14;8.27;82.62
84296;SHT31;74464;42.688;23.304;2024-03-02T04:52:40;8.19;82.19
84296;SHT31;74464;42.688;23.304;2024-03-02T04:55:07;8.07;82.23
84296;SHT31;74464;42.688;23.304;2024-03-02T04:57:45;7.82;83.62
84296;SHT31;74464;42.688;23.304;2024-03-02T05:00:12;7.96;83.95
84296;SHT31;74464;42.688;23.304;2024-03-02T05:02:38;7.89;84.15
84296;SHT31;74464;42.688;23.304;2024-03-02T05:05:06;7.64;85.06
84296;SHT31;74464;42.688;23.304;2024-03-02T05:07:31;7.50;86.07
84296;SHT31;74464;42.688;23.304;2024-03-02T05:09:57;7.43;86.35
84296;SHT31;74464;42.688;23.304;2024-03-02T05:12:23;7.36;86.89
84296;SHT31;74464;42.688;23.304;2024-03-02T05:15:20;7.42;86.82
84296;SHT31;74464;42.688;23.304;2024-03-02T05:17:47;7.61;86.27
84296;SHT31;74464;42.688;23.304;2024-03-02T05:20:13;7.63;86.11
84296;SHT31;74464;42.688;23.304;2024-03-02T05:22:41;7.64;85.78
84296;SHT31;74464;42.688;23.304;2024-03-02T05:25:08;7.67;85.86
84296;SHT31;74464;42.688;23.304;2024-03-02T05:27:37;7.31;86.81
84296;SHT31;74464;42.688;23.304;2024-03-02T05:30:03;7.27;87.61
84296;SHT31;74464;42.688;23.304;2024-03-02T05:32:34;7.23;87.78
84296;SHT31;74464;42.688;23.304;2024-03-02T05:35:00;7.18;88.14
84296;SHT31;74464;42.688;23.304;2024-03-02T05:37:25;7.19;88.42
84296;SHT31;74464;42.688;23.304;2024-03-02T05:39:51;7.33;88.14
84296;SHT31;74464;42.688;23.304;2024-03-02T05:42:19;7.50;87.89
84296;SHT31;74464;42.688;23.304;2024-03-02T05:44:44;7.36;87.86
84296;SHT31;74464;42.688;23.304;2024-03-02T05:47:10;7.27;88.22
84296;SHT31;74464;42.688;23.304;2024-03-02T05:49:36;7.33;88.11
84296;SHT31;74464;42.688;23.304;2024-03-02T05:52:01;7.50;87.83
84296;SHT31;74464;42.688;23.304;2024-03-02T05:54:28;7.60;87.58
84296;SHT31;74464;42.688;23.304;2024-03-02T05:56:54;7.57;87.31
84296;SHT31;74464;42.688;23.304;2024-03-02T05:59:20;7.51;87.39
84296;SHT31;74464;42.688;23.304;2024-03-02T06:01:46;7.67;87.22
84296;SHT31;74464;42.688;23.304;2024-03-02T06:04:13;7.68;86.79
84296;SHT31;74464;42.688;23.304;2024-03-02T06:06:40;7.67;86.92
84296;SHT31;74464;42.688;23.304;2024-03-02T06:09:07;7.71;86.72
84296;SHT31;74464;42.688;23.304;2024-03-02T06:11:37;7.85;86.74
84296;SHT31;74464;42.688;23.304;2024-03-02T06:14:04;8.03;86.50
84296;SHT31;74464;42.688;23.304;2024-03-02T06:16:29;8.13;86.16
84296;SHT31;74464;42.688;23.304;2024-03-02T06:18:56;8.23;86.09
84296;SHT31;74464;42.688;23.304;2024-03-02T06:21:24;8.38;85.53
84296;SHT31;74464;42.688;23.304;2024-03-02T06:23:50;8.44;84.95
84296;SHT31;74464;42.688;23.304;2024-03-02T06:26:17;8.44;84.43
84296;SHT31;74464;42.688;23.304;2024-03-02T06:28:44;8.32;84.64
84296;SHT31;74464;42.688;23.304;2024-03-02T06:31:10;8.22;84.98
84296;SHT31;74464;42.688;23.304;2024-03-02T06:33:36;8.26;85.56
84296;SHT31;74464;42.688;23.304;2024-03-02T06:36:02;8.34;84.91
84296;SHT31;74464;42.688;23.304;2024-03-02T06:38:27;8.40;84.58
84296;SHT31;74464;42.688;23.304;2024-03-02T06:40:53;8.37;84.80
84296;SHT31;74464;42.688;23.304;2024-03-02T06:43:21;8.46;84.10
84296;SHT31;74464;42.688;23.304;2024-03-02T06:45:54;8.48;83.97
84296;SHT31;74464;42.688;23.304;2024-03-02T06:48:20;8.47;83.75
84296;SHT31;74464;42.688;23.304;2024-03-02T06:50:47;8.53;83.60
84296;SHT31;74464;42.688;23.304;2024-03-02T06:53:16;8.40;83.94
84296;SHT31;74464;42.688;23.304;2024-03-02T06:55:45;8.37;84.04
84296;SHT31;74464;42.688;23.304;2024-03-02T06:58:12;8.16;84.79
84296;SHT31;74464;42.688;23.304;2024-03-02T07:00:38;7.95;85.88
84296;SHT31;74464;42.688;23.304;2024-03-02T07:03:04;7.89;86.25
84296;SHT31;74464;42.688;23.304;2024-03-02T07:05:29;8.06;86.30
84296;SHT31;74464;42.688;23.304;2024-03-02T07:07:56;8.13;85.21
84296;SHT31;74464;42.688;23.304;2024-03-02T07:10:22;8.13;85.21
84296;SHT31;74464;42.688;23.304;2024-03-02T07:12:48;8.10;84.86
84296;SHT31;74464;42.688;23.304;2024-03-02T07:15:13;8.13;85.27
84296;SHT31;74464;42.688;23.304;2024-03-02T07:17:57;8.22;84.99
84296;SHT31;74464;42.688;23.304;2024-03-02T07:20:24;8.16;84.51
84296;SHT31;74464;42.688;23.304;2024-03-02T07:22:51;8.22;84.97
84296;SHT31;74464;42.688;23.304;2024-03-02T07:25:17;8.20;84.43
84296;SHT31;74464;42.688;23.304;2024-03-02T07:27:43;8.16;84.86
84296;SHT31;74464;42.688;23.304;2024-03-02T07:30:09;8.07;85.24
84296;SHT31;74464;42.688;23.304;2024-03-02T07:32:37;8.22;85.56
84296;SHT31;74464;42.688;23.304;2024-03-02T07:35:04;8.22;84.19
84296;SHT31;74464;42.688;23.304;2024-03-02T07:37:30;8.14;84.81
84296;SHT31;74464;42.688;23.304;2024-03-02T07:39:57;8.19;85.04
84296;SHT31;74464;42.688;23.304;2024-03-02T07:42:25;8.25;84.10
84296;SHT31;74464;42.688;23.304;2024-03-02T07:44:51;8.27;84.37
84296;SHT31;74464;42.688;23.304;2024-03-02T07:47:18;8.33;85.31
84296;SHT31;74464;42.688;23.304;2024-03-02T07:49:44;8.41;83.92
84296;SHT31;74464;42.688;23.304;2024-03-02T07:52:11;8.17;83.92
84296;SHT31;74464;42.688;23.304;2024-03-02T07:54:37;8.06;84.78
84296;SHT31;74464;42.688;23.304;2024-03-02T07:57:02;8.22;84.36
84296;SHT31;74464;42.688;23.304;2024-03-02T07:59:29;8.32;84.75
84296;SHT31;74464;42.688;23.304;2024-03-02T08:01:56;8.38;84.73
84296;SHT31;74464;42.688;23.304;2024-03-02T08:04:21;8.46;84.63
84296;SHT31;74464;42.688;23.304;2024-03-02T08:06:48;8.57;84.12
84296;SHT31;74464;42.688;23.304;2024-03-02T08:09:23;8.67;83.46
84296;SHT31;74464;42.688;23.304;2024-03-02T08:11:49;8.75;83.21
84296;SHT31;74464;42.688;23.304;2024-03-02T08:14:14;8.84;82.84
84296;SHT31;74464;42.688;23.304;2024-03-02T08:16:41;8.64;83.10
84296;SHT31;74464;42.688;23.304;2024-03-02T08:19:07;8.65;83.40
84296;SHT31;74464;42.688;23.304;2024-03-02T08:21:34;8.69;83.40
84296;SHT31;74464;42.688;23.304;2024-03-02T08:24:01;8.82;82.46
84296;SHT31;74464;42.688;23.304;2024-03-02T08:26:28;8.91;82.52
84296;SHT31;74464;42.688;23.304;2024-03-02T08:28:55;8.88;81.94
84296;SHT31;74464;42.688;23.304;2024-03-02T08:31:21;8.99;82.70
84296;SHT31;74464;42.688;23.304;2024-03-02T08:33:46;9.03;82.14
84296;SHT31;74464;42.688;23.304;2024-03-02T08:36:12;9.09;81.75
84296;SHT31;74464;42.688;23.304;2024-03-02T08:38:38;9.15;81.16
84296;SHT31;74464;42.688;23.304;2024-03-02T08:41:04;9.06;81.11
84296;SHT31;74464;42.688;23.304;2024-03-02T08:43:30;9.13;81.80
84296;SHT31;74464;42.688;23.304;2024-03-02T08:45:56;8.98;81.37
84296;SHT31;74464;42.688;23.304;2024-03-02T08:48:21;9.22;81.56
84296;SHT31;74464;42.688;23.304;2024-03-02T08:50:49;9.44;81.64
84296;SHT31;74464;42.688;23.304;2024-03-02T08:53:14;9.59;80.56
84296;SHT31;74464;42.688;23.304;2024-03-02T08:55:47;9.68;80.05
84296;SHT31;74464;42.688;23.304;2024-03-02T08:58:13;9.88;79.59
84296;SHT31;74464;42.688;23.304;2024-03-02T09:00:38;10.03;78.90
84296;SHT31;74464;42.688;23.304;2024-03-02T09:03:04;9.92;78.48
84296;SHT31;74464;42.688;23.304;2024-03-02T09:05:30;9.85;78.53
84296;SHT31;74464;42.688;23.304;2024-03-02T09:07:57;9.82;79.34
84296;SHT31;74464;42.688;23.304;2024-03-02T09:10:24;9.71;79.57
84296;SHT31;74464;42.688;23.304;2024-03-02T09:12:50;9.75;78.69
84296;SHT31;74464;42.688;23.304;2024-03-02T09:15:16;9.79;78.33
84296;SHT31;74464;42.688;23.304;2024-03-02T09:17:42;9.61;78.61
84296;SHT31;74464;42.688;23.304;2024-03-02T09:20:09;9.86;78.51
84296;SHT31;74464;42.688;23.304;2024-03-02T09:22:37;9.99;78.35
84296;SHT31;74464;42.688;23.304;2024-03-02T09:25:02;10.06;77.93
84296;SHT31;74464;42.688;23.304;2024-03-02T09:27:29;9.92;77.06
84296;SHT31;74464;42.688;23.304;2024-03-02T09:29:55;9.75;77.96
84296;SHT31;74464;42.688;23.304;2024-03-02T09:32:20;9.82;78.67
84296;SHT31;74464;42.688;23.304;2024-03-02T09:34:46;9.89;78.06
84296;SHT31;74464;42.688;23.304;2024-03-02T09:37:13;9.71;78.99
84296;SHT31;74464;42.688;23.304;2024-03-02T09:39:43;9.58;78.46
84296;SHT31;74464;42.688;23.304;2024-03-02T09:42:09;9.67;78.87
84296;SHT31;74464;42.688;23.304;2024-03-02T09:44:38;9.89;78.50
84296;SHT31;74464;42.688;23.304;2024-03-02T09:47:06;10.05;77.70
84296;SHT31;74464;42.688;23.304;2024-03-02T09:49:32;10.16;77.02
84296;SHT31;74464;42.688;23.304;2024-03-02T09:51:57;10.24;76.70
84296;SHT31;74464;42.688;23.304;2024-03-02T09:54:23;9.91;76.34
84296;SHT31;74464;42.688;23.304;2024-03-02T09:56:51;9.82;77.10
84296;SHT31;74464;42.688;23.304;2024-03-02T09:59:17;9.79;77.07
84296;SHT31;74464;42.688;23.304;2024-03-02T10:02:04;9.62;78.94
84296;SHT31;74464;42.688;23.304;2024-03-02T10:04:33;9.79;79.25
84296;SHT31;74464;42.688;23.304;2024-03-02T10:07:16;9.93;78.90
84296;SHT31;74464;42.688;23.304;2024-03-02T10:09:44;9.95;78.94
84296;SHT31;74464;42.688;23.304;2024-03-02T10:12:11;9.88;78.82
84296;SHT31;74464;42.688;23.304;2024-03-02T10:14:40;10.01;78.75
84296;SHT31;74464;42.688;23.304;2024-03-02T10:17:09;10.09;77.52
84296;SHT31;74464;42.688;23.304;2024-03-02T10:19:37;10.23;77.85
84296;SHT31;74464;42.688;23.304;2024-03-02T10:22:05;10.23;77.58
84296;SHT31;74464;42.688;23.304;2024-03-02T10:24:39;10.16;77.17
84296;SHT31;74464;42.688;23.304;2024-03-02T10:27:22;10.23;78.12
84296;SHT31;74464;42.688;23.304;2024-03-02T10:29:48;10.24;77.37
84296;SHT31;74464;42.688;23.304;2024-03-02T10:32:15;10.03;77.97
84296;SHT31;74464;42.688;23.304;2024-03-02T10:34:41;10.06;78.29
84296;SHT31;74464;42.688;23.304;2024-03-02T10:37:07;9.95;78.41
84296;SHT31;74464;42.688;23.304;2024-03-02T10:39:35;9.67;78.91
84296;SHT31;74464;42.688;23.304;2024-03-02T10:42:07;9.58;79.58
84296;SHT31;74464;42.688;23.304;2024-03-02T10:44:35;9.46;80.70
84296;SHT31;74464;42.688;23.304;2024-03-02T10:47:02;9.65;80.54
84296;SHT31;74464;42.688;23.304;2024-03-02T10:49:30;9.73;80.24
84296;SHT31;74464;42.688;23.304;2024-03-02T10:52:02;9.73;80.14
84296;SHT31;74464;42.688;23.304;2024-03-02T10:54:30;9.71;80.55
84296;SHT31;74464;42.688;23.304;2024-03-02T10:57:03;9.68;80.63
84296;SHT31;74464;42.688;23.304;2024-03-02T10:59:37;9.68;80.56
84296;SHT31;74464;42.688;23.304;2024-03-02T11:02:05;9.55;80.43
84296;SHT31;74464;42.688;23.304;2024-03-02T11:04:34;9.46;80.91
84296;SHT31;74464;42.688;23.304;2024-03-02T11:07:08;9.48;81.10
84296;SHT31;74464;42.688;23.304;2024-03-02T11:09:38;9.44;80.85
84296;SHT31;74464;42.688;23.304;2024-03-02T11:12:29;9.50;80.80
84296;SHT31;74464;42.688;23.304;2024-03-02T11:14:56;9.34;81.38
84296;SHT31;74464;42.688;23.304;2024-03-02T11:17:23;9.23;82.20
84296;SHT31;74464;42.688;23.304;2024-03-02T11:19:50;9.36;82.44
84296;SHT31;74464;42.688;23.304;2024-03-02T11:22:17;9.37;81.32
84296;SHT31;74464;42.688;23.304;2024-03-02T11:24:50;9.46;82.32
84296;SHT31;74464;42.688;23.304;2024-03-02T11:33:01;9.50;81.24
84296;SHT31;74464;42.688;23.304;2024-03-02T11:35:42;9.47;81.33
84296;SHT31;74464;42.688;23.304;2024-03-02T11:38:09;9.48;80.69
84296;SHT31;74464;42.688;23.304;2024-03-02T11:40:36;9.50;80.73
84296;SHT31;74464;42.688;23.304;2024-03-02T11:43:05;9.51;81.21
84296;SHT31;74464;42.688;23.304;2024-03-02T11:45:30;9.51;80.95
84296;SHT31;74464;42.688;23.304;2024-03-02T11:48:00;9.52;81.28
84296;SHT31;74464;42.688;23.304;2024-03-02T11:50:49;9.55;81.04
84296;SHT31;74464;42.688;23.304;2024-03-02T11:53:15;9.59;81.26
84296;SHT31;74464;42.688;23.304;2024-03-02T11:55:41;9.64;80.30
84296;SHT31;74464;42.688;23.304;2024-03-02T11:58:15;9.75;80.31
84296;SHT31;74464;42.688;23.304;2024-03-02T12:00:46;9.68;80.28
84296;SHT31;74464;42.688;23.304;2024-03-02T12:03:14;9.73;80.87
84296;SHT31;74464;42.688;23.304;2024-03-02T12:05:40;9.71;80.30
84296;SHT31;74464;42.688;23.304;2024-03-02T12:08:07;9.82;80.25
84296;SHT31;74464;42.688;23.304;2024-03-02T12:10:33;9.98;79.84
84296;SHT31;74464;42.688;23.304;2024-03-02T12:13:01;10.10;78.94
84296;SHT31;74464;42.688;23.304;2024-03-02T12:15:32;10.10;77.50
84296;SHT31;74464;42.688;23.304;2024-03-02T12:18:00;10.13;78.08
84296;SHT31;74464;42.688;23.304;2024-03-02T12:20:28;10.06;77.83
84296;SHT31;74464;42.688;23.304;2024-03-02T12:22:55;10.10;78.68
84296;SHT31;74464;42.688;23.304;2024-03-02T12:25:23;10.05;78.35
84296;SHT31;74464;42.688;23.304;2024-03-02T12:27:53;9.89;79.18
84296;SHT31;74464;42.688;23.304;2024-03-02T12:30:20;9.95;79.20
84296;SHT31;74464;42.688;23.304;2024-03-02T12:32:47;10.08;77.85
84296;SHT31;74464;42.688;23.304;2024-03-02T12:35:13;10.20;78.60
84296;SHT31;74464;42.688;23.304;2024-03-02T12:37:46;10.30;77.68
84296;SHT31;74464;42.688;23.304;2024-03-02T12:40:13;10.34;77.05
84296;SHT31;74464;42.688;23.304;2024-03-02T12:42:39;10.37;77.71
84296;SHT31;74464;42.688;23.304;2024-03-02T12:45:08;10.40;76.85
84296;SHT31;74464;42.688;23.304;2024-03-02T12:47:34;10.36;76.81
84296;SHT31;74464;42.688;23.304;2024-03-02T12:50:00;10.34;77.21
84296;SHT31;74464;42.688;23.304;2024-03-02T12:52:26;10.39;77.32
84296;SHT31;74464;42.688;23.304;2024-03-02T12:54:52;10.33;76.49
84296;SHT31;74464;42.688;23.304;2024-03-02T12:57:28;10.24;76.06
84296;SHT31;74464;42.688;23.304;2024-03-02T13:00:04;10.30;76.04
84296;SHT31;74464;42.688;23.304;2024-03-02T13:02:42;10.37;76.38
84296;SHT31;74464;42.688;23.304;2024-03-02T13:05:08;10.44;77.14
84296;SHT31;74464;42.688;23.304;2024-03-02T13:07:40;10.30;76.18
84296;SHT31;74464;42.688;23.304;2024-03-02T13:10:12;10.19;76.60
84296;SHT31;74464;42.688;23.304;2024-03-02T13:12:38;10.12;76.88
84296;SHT31;74464;42.688;23.304;2024-03-02T13:15:04;10.06;77.11
84296;SHT31;74464;42.688;23.304;2024-03-02T13:17:30;9.88;77.65
84296;SHT31;74464;42.688;23.304;2024-03-02T13:19:59;9.86;77.60
84296;SHT31;74464;42.688;23.304;2024-03-02T13:22:26;9.92;77.70
84296;SHT31;74464;42.688;23.304;2024-03-02T13:24:53;10.02;77.91
84296;SHT31;74464;42.688;23.304;2024-03-02T13:27:23;10.16;77.10
84296;SHT31;74464;42.688;23.304;2024-03-02T13:29:49;10.03;76.88
84296;SHT31;74464;42.688;23.304;2024-03-02T13:32:15;9.99;76.77
84296;SHT31;74464;42.688;23.304;2024-03-02T13:34:41;9.93;77.43
84296;SHT31;74464;42.688;23.304;2024-03-02T13:37:07;9.92;77.15
84296;SHT31;74464;42.688;23.304;2024-03-02T13:39:33;9.88;76.03
84296;SHT31;74464;42.688;23.304;2024-03-02T13:42:08;10.01;76.73
84296;SHT31;74464;42.688;23.304;2024-03-02T13:44:36;9.99;76.91
84296;SHT31;74464;42.688;23.304;2024-03-02T13:47:03;9.99;77.11
84296;SHT31;74464;42.688;23.304;2024-03-02T13:49:28;10.01;77.38
84296;SHT31;74464;42.688;23.304;2024-03-02T13:51:59;10.03;77.40
84296;SHT31;74464;42.688;23.304;2024-03-02T13:54:28;10.05;75.35
84296;SHT31;74464;42.688;23.304;2024-03-02T13:56:54;10.09;75.93
84296;SHT31;74464;42.688;23.304;2024-03-02T13:59:21;10.05;76.03
84296;SHT31;74464;42.688;23.304;2024-03-02T14:01:47;10.10;75.26
84296;SHT31;74464;42.688;23.304;2024-03-02T14:04:13;10.16;75.65
84296;SHT31;74464;42.688;23.304;2024-03-02T14:06:39;10.30;74.85
84296;SHT31;74464;42.688;23.304;2024-03-02T14:09:04;10.32;74.72
84296;SHT31;74464;42.688;23.304;2024-03-02T14:11:30;10.16;74.77
84296;SHT31;74464;42.688;23.304;2024-03-02T14:13:55;9.78;76.90
84296;SHT31;74464;42.688;23.304;2024-03-02T14:16:22;9.82;76.81
84296;SHT31;74464;42.688;23.304;2024-03-02T14:18:48;9.92;76.75
84296;SHT31;74464;42.688;23.304;2024-03-02T14:21:13;10.13;76.63
84296;SHT31;74464;42.688;23.304;2024-03-02T14:23:39;10.23;75.69
84296;SHT31;74464;42.688;23.304;2024-03-02T14:26:05;10.26;75.87
84296;SHT31;74464;42.688;23.304;2024-03-02T14:28:32;10.32;75.36
84296;SHT31;74464;42.688;23.304;2024-03-02T14:30:58;10.17;75.61
84296;SHT31;74464;42.688;23.304;2024-03-02T14:33:26;10.06;75.79
84296;SHT31;74464;42.688;23.304;2024-03-02T14:35:51;10.26;75.76
84296;SHT31;74464;42.688;23.304;2024-03-02T14:38:18;10.56;75.25
84296;SHT31;74464;42.688;23.304;2024-03-02T14:40:45;10.75;75.21
84296;SHT31;74464;42.688;23.304;2024-03-02T14:43:13;10.96;74.69
84296;SHT31;74464;42.688;23.304;2024-03-02T14:45:39;11.05;73.35
84296;SHT31;74464;42.688;23.304;2024-03-02T14:48:05;11.16;73.50
84296;SHT31;74464;42.688;23.304;2024-03-02T14:50:31;11.20;73.08
84296;SHT31;74464;42.688;23.304;2024-03-02T14:52:56;11.19;72.78
84296;SHT31;74464;42.688;23.304;2024-03-02T14:55:23;11.22;72.83
84296;SHT31;74464;42.688;23.304;2024-03-02T14:57:49;11.29;72.36
84296;SHT31;74464;42.688;23.304;2024-03-02T15:00:15;11.33;72.04
84296;SHT31;74464;42.688;23.304;2024-03-02T15:02:41;11.37;71.65
84296;SHT31;74464;42.688;23.304;2024-03-02T15:05:07;11.41;71.69
84296;SHT31;74464;42.688;23.304;2024-03-02T15:07:34;11.37;71.95
84296;SHT31;74464;42.688;23.304;2024-03-02T15:10:00;11.43;71.83
84296;SHT31;74464;42.688;23.304;2024-03-02T15:12:26;11.39;71.94
84296;SHT31;74464;42.688;23.304;2024-03-02T15:14:53;11.13;72.11
84296;SHT31;74464;42.688;23.304;2024-03-02T15:17:18;11.13;72.72
84296;SHT31;74464;42.688;23.304;2024-03-02T15:19:45;11.19;72.92
84296;SHT31;74464;42.688;23.304;2024-03-02T15:22:11;11.18;73.42
84296;SHT31;74464;42.688;23.304;2024-03-02T15:24:37;11.15;73.47
84296;SHT31;74464;42.688;23.304;2024-03-02T15:27:05;11.05;73.32
84296;SHT31;74464;42.688;23.304;2024-03-02T15:29:33;10.72;74.75
84296;SHT31;74464;42.688;23.304;2024-03-02T15:31:59;10.76;74.59
84296;SHT31;74464;42.688;23.304;2024-03-02T15:34:25;10.60;75.30
84296;SHT31;74464;42.688;23.304;2024-03-02T15:36:51;10.69;75.56